sensor_id;sensor_type;location;lat;lon;timestamp;temperature;humidity
25622;DHT22;13487;39.360;22.962;2023-02-13T00:00:52;8.30;99.90
25622;DHT22;13487;39.360;22.962;2023-02-13T00:03:18;8.40;99.90
25622;DHT22;13487;39.360;22.962;2023-02-13T00:05:44;8.40;99.90
25622;DHT22;13487;39.360;22.962;2023-02-13T00:08:10;8.40;99.90
25622;DHT22;13487;39.360;22.962;2023-02-13T00:10:36;8.30;99.90
25622;DHT22;13487;39.360;22.962;2023-02-13T00:13:01;8.20;99.90
25622;DHT22;13487;39.360;22.962;2023-02-13T00:15:27;8.10;99.90
25622;DHT22;13487;39.360;22.962;2023-02-13T00:17:53;8.20;99.90
25622;DHT22;13487;39.360;22.962;2023-02-13T00:20:19;8.30;99.90
25622;DHT22;13487;39.360;22.962;2023-02-13T00:22:44;8.40;99.90
25622;DHT22;13487;39.360;22.962;2023-02-13T00:25:10;8.40;99.90
25622;DHT22;13487;39.360;22.962;2023-02-13T00:27:36;8.40;99.90
25622;DHT22;13487;39.360;22.962;2023-02-13T00:30:03;8.50;99.90
25622;DHT22;13487;39.360;22.962;2023-02-13T00:32:29;8.50;99.90
25622;DHT22;13487;39.360;22.962;2023-02-13T00:34:56;8.50;99.90
25622;DHT22;13487;39.360;22.962;2023-02-13T00:37:23;8.40;99.90
25622;DHT22;13487;39.360;22.962;2023-02-13T00:39:48;8.50;99.90
25622;DHT22;13487;39.360;22.962;2023-02-13T00:42:14;8.50;99.90
25622;DHT22;13487;39.360;22.962;2023-02-13T00:44:40;8.60;99.90
25622;DHT22;13487;39.360;22.962;2023-02-13T00:47:06;8.70;99.90
25622;DHT22;13487;39.360;22.962;2023-02-13T00:49:32;8.70;99.90
25622;DHT22;13487;39.360;22.962;2023-02-13T00:51:57;8.40;99.90
25622;DHT22;13487;39.360;22.962;2023-02-13T00:54:23;8.30;99.90
25622;DHT22;13487;39.360;22.962;2023-02-13T00:56:49;8.20;99.90
25622;DHT22;13487;39.360;22.962;2023-02-13T00:59:15;8.40;99.90
25622;DHT22;13487;39.360;22.962;2023-02-13T01:01:42;8.50;99.90
25622;DHT22;13487;39.360;22.962;2023-02-13T01:04:07;8.40;99.90
25622;DHT22;13487;39.360;22.962;2023-02-13T01:06:33;8.40;99.90
25622;DHT22;13487;39.360;22.962;2023-02-13T01:08:59;8.20;99.90
25622;DHT22;13487;39.360;22.962;2023-02-13T01:11:25;8.20;99.90
25622;DHT22;13487;39.360;22.962;2023-02-13T01:13:50;8.40;99.90
25622;DHT22;13487;39.360;22.962;2023-02-13T01:16:16;8.30;99.90
25622;DHT22;13487;39.360;22.962;2023-02-13T01:18:42;8.30;99.90
25622;DHT22;13487;39.360;22.962;2023-02-13T01:21:17;8.20;99.90
25622;DHT22;13487;39.360;22.962;2023-02-13T01:23:44;8.50;99.90
25622;DHT22;13487;39.360;22.962;2023-02-13T01:26:17;8.70;99.90
25622;DHT22;13487;39.360;22.962;2023-02-13T01:28:43;9.10;99.90
25622;DHT22;13487;39.360;22.962;2023-02-13T01:31:09;9.00;99.90
25622;DHT22;13487;39.360;22.962;2023-02-13T01:33:35;9.00;99.90
25622;DHT22;13487;39.360;22.962;2023-02-13T01:36:06;8.90;99.90
25622;DHT22;13487;39.360;22.962;2023-02-13T01:38:32;8.90;99.90
25622;DHT22;13487;39.360;22.962;2023-02-13T01:40:58;8.90;99.90
25622;DHT22;13487;39.360;22.962;2023-02-13T01:43:41;9.00;99.90
25622;DHT22;13487;39.360;22.962;2023-02-13T01:46:06;9.00;99.90
25622;DHT22;13487;39.360;22.962;2023-02-13T01:48:32;8.80;99.90
25622;DHT22;13487;39.360;22.962;2023-02-13T01:51:07;8.60;99.90
25622;DHT22;13487;39.360;22.962;2023-02-13T01:53:41;8.60;99.90
25622;DHT22;13487;39.360;22.962;2023-02-13T01:56:18;8.60;99.90
25622;DHT22;13487;39.360;22.962;2023-02-13T01:58:47;8.60;99.90
25622;DHT22;13487;39.360;22.962;2023-02-13T02:01:13;8.70;99.90
25622;DHT22;13487;39.360;22.962;2023-02-13T02:03:48;8.80;99.90
25622;DHT22;13487;39.360;22.962;2023-02-13T02:06:47;8.70;99.90
25622;DHT22;13487;39.360;22.962;2023-02-13T02:09:17;8.70;99.90
25622;DHT22;13487;39.360;22.962;2023-02-13T02:14:19;8.90;99.90
25622;DHT22;13487;39.360;22.962;2023-02-13T02:16:45;8.80;99.90
25622;DHT22;13487;39.360;22.962;2023-02-13T02:19:21;8.80;99.90
25622;DHT22;13487;39.360;22.962;2023-02-13T02:24:53;8.70;99.90
25622;DHT22;13487;39.360;22.962;2023-02-13T02:30:37;8.60;99.90
25622;DHT22;13487;39.360;22.962;2023-02-13T02:38:55;8.60;99.90
25622;DHT22;13487;39.360;22.962;2023-02-13T02:41:59;8.60;99.90
25622;DHT22;13487;39.360;22.962;2023-02-13T02:50:06;8.20;99.90
25622;DHT22;13487;39.360;22.962;2023-02-13T02:55:46;8.00;99.90
25622;DHT22;13487;39.360;22.962;2023-02-13T02:58:21;8.20;99.90
25622;DHT22;13487;39.360;22.962;2023-02-13T03:01:13;8.30;99.90
25622;DHT22;13487;39.360;22.962;2023-02-13T03:03:58;8.30;99.90
25622;DHT22;13487;39.360;22.962;2023-02-13T03:06:52;8.40;99.90
25622;DHT22;13487;39.360;22.962;2023-02-13T03:09:31;8.10;99.90
25622;DHT22;13487;39.360;22.962;2023-02-13T03:12:20;8.00;99.90
25622;DHT22;13487;39.360;22.962;2023-02-13T03:15:06;8.00;99.90
25622;DHT22;13487;39.360;22.962;2023-02-13T03:17:32;8.00;99.90
25622;DHT22;13487;39.360;22.962;2023-02-13T03:31:33;8.00;99.90
25622;DHT22;13487;39.360;22.962;2023-02-13T03:34:06;7.90;99.90
25622;DHT22;13487;39.360;22.962;2023-02-13T03:37:13;8.10;99.90
25622;DHT22;13487;39.360;22.962;2023-02-13T03:39:56;8.20;99.90
25622;DHT22;13487;39.360;22.962;2023-02-13T03:45:25;8.30;99.90
25622;DHT22;13487;39.360;22.962;2023-02-13T03:48:15;8.40;99.90
25622;DHT22;13487;39.360;22.962;2023-02-13T03:51:03;8.10;99.90
25622;DHT22;13487;39.360;22.962;2023-02-13T03:53:34;7.80;99.90
25622;DHT22;13487;39.360;22.962;2023-02-13T03:56:01;7.60;1.00
25622;DHT22;13487;39.360;22.962;2023-02-13T03:58:49;7.70;1.00
25622;DHT22;13487;39.360;22.962;2023-02-13T04:01:36;7.90;1.00
25622;DHT22;13487;39.360;22.962;2023-02-13T04:07:05;7.70;1.00
25622;DHT22;13487;39.360;22.962;2023-02-13T04:09:34;7.60;1.00
25622;DHT22;13487;39.360;22.962;2023-02-13T04:12:04;7.60;1.00
25622;DHT22;13487;39.360;22.962;2023-02-13T04:17:06;7.20;1.00
25622;DHT22;13487;39.360;22.962;2023-02-13T04:19:33;7.20;1.00
25622;DHT22;13487;39.360;22.962;2023-02-13T04:22:00;7.10;1.00
25622;DHT22;13487;39.360;22.962;2023-02-13T04:24:27;7.40;1.00
25622;DHT22;13487;39.360;22.962;2023-02-13T04:26:53;7.60;1.00
25622;DHT22;13487;39.360;22.962;2023-02-13T04:29:24;7.70;1.00
25622;DHT22;13487;39.360;22.962;2023-02-13T04:31:50;7.70;1.00
25622;DHT22;13487;39.360;22.962;2023-02-13T04:34:16;7.60;1.00
25622;DHT22;13487;39.360;22.962;2023-02-13T04:36:42;7.70;1.00
25622;DHT22;13487;39.360;22.962;2023-02-13T04:39:09;7.70;1.00
25622;DHT22;13487;39.360;22.962;2023-02-13T04:41:35;7.70;1.00
25622;DHT22;13487;39.360;22.962;2023-02-13T04:44:00;7.70;1.00
25622;DHT22;13487;39.360;22.962;2023-02-13T04:46:26;7.70;1.00
25622;DHT22;13487;39.360;22.962;2023-02-13T04:48:52;7.90;1.00
25622;DHT22;13487;39.360;22.962;2023-02-13T04:51:18;7.90;1.00
25622;DHT22;13487;39.360;22.962;2023-02-13T04:53:43;7.60;1.00
25622;DHT22;13487;39.360;22.962;2023-02-13T04:56:09;7.50;1.00
25622;DHT22;13487;39.360;22.962;2023-02-13T04:58:35;7.60;15.50
25622;DHT22;13487;39.360;22.962;2023-02-13T05:01:01;7.40;1.00
25622;DHT22;13487;39.360;22.962;2023-02-13T05:03:27;7.20;1.00
25622;DHT22;13487;39.360;22.962;2023-02-13T05:05:53;7.30;1.00
25622;DHT22;13487;39.360;22.962;2023-02-13T05:08:19;7.20;7.40
25622;DHT22;13487;39.360;22.962;2023-02-13T05:10:44;7.40;1.00
25622;DHT22;13487;39.360;22.962;2023-02-13T05:13:10;7.40;1.00
25622;DHT22;13487;39.360;22.962;2023-02-13T05:15:36;7.50;1.00
25622;DHT22;13487;39.360;22.962;2023-02-13T05:18:02;7.50;1.00
25622;DHT22;13487;39.360;22.962;2023-02-13T05:20:28;7.50;1.00
25622;DHT22;13487;39.360;22.962;2023-02-13T05:22:54;7.50;1.00
25622;DHT22;13487;39.360;22.962;2023-02-13T05:25:39;7.70;1.00
25622;DHT22;13487;39.360;22.962;2023-02-13T05:28:06;7.40;1.00
25622;DHT22;13487;39.360;22.962;2023-02-13T05:30:51;7.40;1.00
25622;DHT22;13487;39.360;22.962;2023-02-13T05:33:17;7.30;21.60
25622;DHT22;13487;39.360;22.962;2023-02-13T05:35:42;7.00;94.30
25622;DHT22;13487;39.360;22.962;2023-02-13T05:38:09;6.90;99.90
25622;DHT22;13487;39.360;22.962;2023-02-13T05:40:35;6.80;99.90
25622;DHT22;13487;39.360;22.962;2023-02-13T05:43:01;6.90;99.90
25622;DHT22;13487;39.360;22.962;2023-02-13T05:45:27;7.00;99.90
25622;DHT22;13487;39.360;22.962;2023-02-13T05:47:52;7.20;99.90
25622;DHT22;13487;39.360;22.962;2023-02-13T05:50:18;7.30;57.20
25622;DHT22;13487;39.360;22.962;2023-02-13T05:52:44;7.20;14.40
25622;DHT22;13487;39.360;22.962;2023-02-13T05:55:10;7.30;25.80
25622;DHT22;13487;39.360;22.962;2023-02-13T05:57:35;7.30;34.40
25622;DHT22;13487;39.360;22.962;2023-02-13T06:00:02;7.10;31.00
25622;DHT22;13487;39.360;22.962;2023-02-13T06:02:27;6.90;73.80
25622;DHT22;13487;39.360;22.962;2023-02-13T06:04:53;6.90;94.10
25622;DHT22;13487;39.360;22.962;2023-02-13T06:07:19;6.80;99.90
25622;DHT22;13487;39.360;22.962;2023-02-13T06:09:44;7.10;99.90
25622;DHT22;13487;39.360;22.962;2023-02-13T06:12:10;7.30;99.90
25622;DHT22;13487;39.360;22.962;2023-02-13T06:14:36;7.50;78.40
25622;DHT22;13487;39.360;22.962;2023-02-13T06:17:01;7.60;23.70
25622;DHT22;13487;39.360;22.962;2023-02-13T06:19:27;7.40;9.10
25622;DHT22;13487;39.360;22.962;2023-02-13T06:21:53;7.00;34.00
25622;DHT22;13487;39.360;22.962;2023-02-13T06:24:19;6.80;79.60
25622;DHT22;13487;39.360;22.962;2023-02-13T06:26:44;6.90;97.50
25622;DHT22;13487;39.360;22.962;2023-02-13T06:29:10;6.80;89.90
25622;DHT22;13487;39.360;22.962;2023-02-13T06:31:37;6.90;63.70
25622;DHT22;13487;39.360;22.962;2023-02-13T06:34:03;6.80;46.00
25622;DHT22;13487;39.360;22.962;2023-02-13T06:36:29;7.10;62.30
25622;DHT22;13487;39.360;22.962;2023-02-13T06:38:54;7.20;32.50
25622;DHT22;13487;39.360;22.962;2023-02-13T06:41:20;7.00;1.00
25622;DHT22;13487;39.360;22.962;2023-02-13T06:43:46;6.90;13.70
25622;DHT22;13487;39.360;22.962;2023-02-13T06:46:12;7.10;1.00
25622;DHT22;13487;39.360;22.962;2023-02-13T06:48:38;7.30;1.00
25622;DHT22;13487;39.360;22.962;2023-02-13T06:51:04;7.50;1.00
25622;DHT22;13487;39.360;22.962;2023-02-13T06:53:29;7.30;1.00
25622;DHT22;13487;39.360;22.962;2023-02-13T06:55:56;7.20;1.00
25622;DHT22;13487;39.360;22.962;2023-02-13T06:58:23;7.00;1.00
25622;DHT22;13487;39.360;22.962;2023-02-13T07:00:50;6.80;1.00
25622;DHT22;13487;39.360;22.962;2023-02-13T07:03:16;6.90;1.00
25622;DHT22;13487;39.360;22.962;2023-02-13T07:05:43;7.00;1.00
25622;DHT22;13487;39.360;22.962;2023-02-13T07:08:10;7.30;1.00
25622;DHT22;13487;39.360;22.962;2023-02-13T07:10:37;7.40;1.00
25622;DHT22;13487;39.360;22.962;2023-02-13T07:13:03;7.60;1.00
25622;DHT22;13487;39.360;22.962;2023-02-13T07:15:29;7.40;1.00
25622;DHT22;13487;39.360;22.962;2023-02-13T07:17:58;7.30;1.00
25622;DHT22;13487;39.360;22.962;2023-02-13T07:20:25;7.60;1.00
25622;DHT22;13487;39.360;22.962;2023-02-13T07:22:51;7.80;1.00
25622;DHT22;13487;39.360;22.962;2023-02-13T07:25:18;7.70;1.00
25622;DHT22;13487;39.360;22.962;2023-02-13T07:27:44;7.50;1.00
25622;DHT22;13487;39.360;22.962;2023-02-13T07:30:10;7.50;1.00
25622;DHT22;13487;39.360;22.962;2023-02-13T07:32:36;7.80;1.00
25622;DHT22;13487;39.360;22.962;2023-02-13T07:35:02;8.10;1.00
25622;DHT22;13487;39.360;22.962;2023-02-13T07:37:29;8.30;1.00
25622;DHT22;13487;39.360;22.962;2023-02-13T07:39:55;8.40;1.00
25622;DHT22;13487;39.360;22.962;2023-02-13T07:42:21;8.30;1.00
25622;DHT22;13487;39.360;22.962;2023-02-13T07:44:47;8.50;1.00
25622;DHT22;13487;39.360;22.962;2023-02-13T07:47:12;8.40;1.00
25622;DHT22;13487;39.360;22.962;2023-02-13T07:49:38;8.50;1.00
25622;DHT22;13487;39.360;22.962;2023-02-13T07:52:04;8.20;1.00
25622;DHT22;13487;39.360;22.962;2023-02-13T07:54:30;7.90;1.00
25622;DHT22;13487;39.360;22.962;2023-02-13T07:56:57;7.70;1.00
25622;DHT22;13487;39.360;22.962;2023-02-13T07:59:23;7.70;1.00
25622;DHT22;13487;39.360;22.962;2023-02-13T08:01:48;7.80;1.00
25622;DHT22;13487;39.360;22.962;2023-02-13T08:04:14;8.00;1.00
25622;DHT22;13487;39.360;22.962;2023-02-13T08:06:40;8.30;1.00
25622;DHT22;13487;39.360;22.962;2023-02-13T08:09:06;8.50;1.00
25622;DHT22;13487;39.360;22.962;2023-02-13T08:11:52;8.80;1.00
25622;DHT22;13487;39.360;22.962;2023-02-13T08:14:22;8.90;1.00
25622;DHT22;13487;39.360;22.962;2023-02-13T08:16:49;8.50;99.90
25622;DHT22;13487;39.360;22.962;2023-02-13T08:19:15;8.60;99.90
25622;DHT22;13487;39.360;22.962;2023-02-13T08:21:41;8.80;99.90
25622;DHT22;13487;39.360;22.962;2023-02-13T08:24:06;9.10;1.00
25622;DHT22;13487;39.360;22.962;2023-02-13T08:26:32;9.20;1.00
25622;DHT22;13487;39.360;22.962;2023-02-13T08:28:59;9.40;99.90
25622;DHT22;13487;39.360;22.962;2023-02-13T08:31:25;9.10;1.00
25622;DHT22;13487;39.360;22.962;2023-02-13T08:33:51;8.90;1.00
25622;DHT22;13487;39.360;22.962;2023-02-13T08:36:17;9.20;99.90
25622;DHT22;13487;39.360;22.962;2023-02-13T08:38:46;9.30;99.90
25622;DHT22;13487;39.360;22.962;2023-02-13T08:41:12;9.10;1.00
25622;DHT22;13487;39.360;22.962;2023-02-13T08:43:38;9.10;1.00
25622;DHT22;13487;39.360;22.962;2023-02-13T08:46:04;9.50;99.90
25622;DHT22;13487;39.360;22.962;2023-02-13T08:48:30;9.80;1.00
25622;DHT22;13487;39.360;22.962;2023-02-13T08:50:56;9.70;1.00
25622;DHT22;13487;39.360;22.962;2023-02-13T08:53:22;9.60;1.00
25622;DHT22;13487;39.360;22.962;2023-02-13T08:55:55;9.70;1.00
25622;DHT22;13487;39.360;22.962;2023-02-13T08:58:22;9.90;1.00
25622;DHT22;13487;39.360;22.962;2023-02-13T09:00:47;10.10;1.00
25622;DHT22;13487;39.360;22.962;2023-02-13T09:03:13;10.40;1.00
25622;DHT22;13487;39.360;22.962;2023-02-13T09:05:39;10.30;99.90
25622;DHT22;13487;39.360;22.962;2023-02-13T09:08:05;10.20;1.00
25622;DHT22;13487;39.360;22.962;2023-02-13T09:10:33;10.30;1.00
25622;DHT22;13487;39.360;22.962;2023-02-13T09:12:59;10.30;1.00
25622;DHT22;13487;39.360;22.962;2023-02-13T09:15:25;10.40;1.00
25622;DHT22;13487;39.360;22.962;2023-02-13T09:17:51;10.40;99.90
25622;DHT22;13487;39.360;22.962;2023-02-13T09:20:17;10.40;1.00
25622;DHT22;13487;39.360;22.962;2023-02-13T09:22:43;10.50;99.90
25622;DHT22;13487;39.360;22.962;2023-02-13T09:25:09;10.40;1.00
25622;DHT22;13487;39.360;22.962;2023-02-13T09:27:35;10.30;1.00
25622;DHT22;13487;39.360;22.962;2023-02-13T09:30:04;10.30;1.00
25622;DHT22;13487;39.360;22.962;2023-02-13T09:32:30;10.50;1.00
25622;DHT22;13487;39.360;22.962;2023-02-13T09:34:56;10.40;1.00
25622;DHT22;13487;39.360;22.962;2023-02-13T09:37:22;10.50;99.90
25622;DHT22;13487;39.360;22.962;2023-02-13T09:39:48;10.30;99.90
25622;DHT22;13487;39.360;22.962;2023-02-13T09:42:26;10.50;43.30
25622;DHT22;13487;39.360;22.962;2023-02-13T09:44:56;10.50;1.00
25622;DHT22;13487;39.360;22.962;2023-02-13T09:47:35;10.60;1.00
25622;DHT22;13487;39.360;22.962;2023-02-13T09:50:24;10.70;1.00
25622;DHT22;13487;39.360;22.962;2023-02-13T09:52:50;10.90;1.00
25622;DHT22;13487;39.360;22.962;2023-02-13T09:58:18;10.60;1.00
25622;DHT22;13487;39.360;22.962;2023-02-13T10:00:51;10.60;1.00
25622;DHT22;13487;39.360;22.962;2023-02-13T10:03:27;10.60;1.00
25622;DHT22;13487;39.360;22.962;2023-02-13T10:06:12;10.80;1.00
25622;DHT22;13487;39.360;22.962;2023-02-13T10:12:02;10.60;1.00
25622;DHT22;13487;39.360;22.962;2023-02-13T10:14:46;10.70;1.00
25622;DHT22;13487;39.360;22.962;2023-02-13T10:17:19;10.50;1.00
25622;DHT22;13487;39.360;22.962;2023-02-13T10:20:03;10.60;1.00
25622;DHT22;13487;39.360;22.962;2023-02-13T10:22:50;10.50;1.00
25622;DHT22;13487;39.360;22.962;2023-02-13T10:25:23;10.40;1.00
25622;DHT22;13487;39.360;22.962;2023-02-13T10:28:03;10.20;88.40
25622;DHT22;13487;39.360;22.962;2023-02-13T10:30:35;10.10;99.90
25622;DHT22;13487;39.360;22.962;2023-02-13T10:33:19;10.10;99.90
25622;DHT22;13487;39.360;22.962;2023-02-13T10:38:37;10.20;1.00
25622;DHT22;13487;39.360;22.962;2023-02-13T10:44:18;10.10;1.00
25622;DHT22;13487;39.360;22.962;2023-02-13T10:47:04;10.20;1.00
25622;DHT22;13487;39.360;22.962;2023-02-13T10:49:56;10.10;1.00
25622;DHT22;13487;39.360;22.962;2023-02-13T10:58:33;10.20;1.00
25622;DHT22;13487;39.360;22.962;2023-02-13T11:01:18;10.30;1.00
25622;DHT22;13487;39.360;22.962;2023-02-13T11:03:49;10.10;1.00
25622;DHT22;13487;39.360;22.962;2023-02-13T11:06:24;10.00;1.00
25622;DHT22;13487;39.360;22.962;2023-02-13T11:08:50;10.00;1.00
25622;DHT22;13487;39.360;22.962;2023-02-13T11:11:33;10.00;1.00
25622;DHT22;13487;39.360;22.962;2023-02-13T11:14:15;10.00;99.90
25622;DHT22;13487;39.360;22.962;2023-02-13T11:16:49;10.00;1.00
25622;DHT22;13487;39.360;22.962;2023-02-13T11:19:38;9.70;1.00
25622;DHT22;13487;39.360;22.962;2023-02-13T11:22:10;9.70;1.00
25622;DHT22;13487;39.360;22.962;2023-02-13T11:24:41;9.70;1.00
25622;DHT22;13487;39.360;22.962;2023-02-13T11:27:09;9.40;1.00
25622;DHT22;13487;39.360;22.962;2023-02-13T11:29:55;9.50;1.00
25622;DHT22;13487;39.360;22.962;2023-02-13T11:32:26;9.70;1.00
25622;DHT22;13487;39.360;22.962;2023-02-13T11:34:52;9.30;99.90
25622;DHT22;13487;39.360;22.962;2023-02-13T11:37:26;9.30;1.00
25622;DHT22;13487;39.360;22.962;2023-02-13T11:39:57;9.30;1.00
25622;DHT22;13487;39.360;22.962;2023-02-13T11:44:58;9.50;99.90
25622;DHT22;13487;39.360;22.962;2023-02-13T11:47:38;9.50;1.00
25622;DHT22;13487;39.360;22.962;2023-02-13T11:50:26;9.50;1.00
25622;DHT22;13487;39.360;22.962;2023-02-13T11:58:23;9.50;99.90
25622;DHT22;13487;39.360;22.962;2023-02-13T12:00:49;9.40;99.90
25622;DHT22;13487;39.360;22.962;2023-02-13T12:03:31;9.40;99.90
25622;DHT22;13487;39.360;22.962;2023-02-13T12:06:02;9.40;99.90
25622;DHT22;13487;39.360;22.962;2023-02-13T12:08:29;9.50;99.90
25622;DHT22;13487;39.360;22.962;2023-02-13T12:10:57;9.50;99.90
25622;DHT22;13487;39.360;22.962;2023-02-13T12:13:25;9.60;99.90
25622;DHT22;13487;39.360;22.962;2023-02-13T12:15:58;9.60;99.90
25622;DHT22;13487;39.360;22.962;2023-02-13T12:23:53;9.60;99.90
25622;DHT22;13487;39.360;22.962;2023-02-13T12:26:39;9.60;93.90
25622;DHT22;13487;39.360;22.962;2023-02-13T12:34:53;9.50;1.00
25622;DHT22;13487;39.360;22.962;2023-02-13T12:40:48;9.50;89.60
25622;DHT22;13487;39.360;22.962;2023-02-13T12:57:14;9.60;99.90
25622;DHT22;13487;39.360;22.962;2023-02-13T13:07:59;9.60;1.00
25622;DHT22;13487;39.360;22.962;2023-02-13T13:16:21;9.50;99.90
25622;DHT22;13487;39.360;22.962;2023-02-13T13:21:34;9.50;99.90
25622;DHT22;13487;39.360;22.962;2023-02-13T13:24:32;9.30;99.90
25622;DHT22;13487;39.360;22.962;2023-02-13T13:27:02;9.30;1.00
25622;DHT22;13487;39.360;22.962;2023-02-13T13:29:45;9.30;1.00
25622;DHT22;13487;39.360;22.962;2023-02-13T13:32:16;9.20;59.70
25622;DHT22;13487;39.360;22.962;2023-02-13T13:34:44;9.20;99.90
25622;DHT22;13487;39.360;22.962;2023-02-13T13:42:26;9.10;1.00
25622;DHT22;13487;39.360;22.962;2023-02-13T13:48:30;9.10;99.90
25622;DHT22;13487;39.360;22.962;2023-02-13T13:51:00;9.00;15.70
25622;DHT22;13487;39.360;22.962;2023-02-13T13:53:29;9.00;99.90
25622;DHT22;13487;39.360;22.962;2023-02-13T14:01:23;9.00;1.00
25622;DHT22;13487;39.360;22.962;2023-02-13T14:03:52;9.10;99.90
25622;DHT22;13487;39.360;22.962;2023-02-13T14:06:27;9.20;99.90
25622;DHT22;13487;39.360;22.962;2023-02-13T14:08:59;9.30;1.00
25622;DHT22;13487;39.360;22.962;2023-02-13T14:11:35;9.20;99.90
25622;DHT22;13487;39.360;22.962;2023-02-13T14:14:42;9.30;1.00
25622;DHT22;13487;39.360;22.962;2023-02-13T14:16:47;9.40;99.90
25622;DHT22;13487;39.360;22.962;2023-02-13T14:19:29;9.40;1.00
25622;DHT22;13487;39.360;22.962;2023-02-13T14:24:54;9.50;1.00
25622;DHT22;13487;39.360;22.962;2023-02-13T14:27:32;9.60;1.00
25622;DHT22;13487;39.360;22.962;2023-02-13T14:30:00;9.70;99.90
25622;DHT22;13487;39.360;22.962;2023-02-13T14:32:34;9.70;99.90
25622;DHT22;13487;39.360;22.962;2023-02-13T14:35:24;9.80;99.90
25622;DHT22;13487;39.360;22.962;2023-02-13T14:37:54;9.80;99.90
25622;DHT22;13487;39.360;22.962;2023-02-13T14:45:31;9.90;99.90
25622;DHT22;13487;39.360;22.962;2023-02-13T14:48:03;10.00;19.30
25622;DHT22;13487;39.360;22.962;2023-02-13T14:50:48;10.00;1.00
25622;DHT22;13487;39.360;22.962;2023-02-13T14:53:30;9.80;1.00
25622;DHT22;13487;39.360;22.962;2023-02-13T14:56:05;9.80;1.00
25622;DHT22;13487;39.360;22.962;2023-02-13T14:58:35;9.70;1.00
25622;DHT22;13487;39.360;22.962;2023-02-13T15:03:48;9.80;1.00
25622;DHT22;13487;39.360;22.962;2023-02-13T15:06:30;9.90;1.00
25622;DHT22;13487;39.360;22.962;2023-02-13T15:09:01;9.80;1.00
25622;DHT22;13487;39.360;22.962;2023-02-13T15:14:21;9.80;1.00
25622;DHT22;13487;39.360;22.962;2023-02-13T15:17:10;9.80;1.00
25622;DHT22;13487;39.360;22.962;2023-02-13T15:19:43;9.70;99.90
25622;DHT22;13487;39.360;22.962;2023-02-13T15:22:18;9.60;99.90
25622;DHT22;13487;39.360;22.962;2023-02-13T15:24:46;9.40;1.00
25622;DHT22;13487;39.360;22.962;2023-02-13T15:27:30;9.50;1.00
25622;DHT22;13487;39.360;22.962;2023-02-13T15:30:17;9.60;1.00
25622;DHT22;13487;39.360;22.962;2023-02-13T15:32:43;9.50;1.00
25622;DHT22;13487;39.360;22.962;2023-02-13T15:35:24;9.50;1.00
25622;DHT22;13487;39.360;22.962;2023-02-13T15:37:50;9.40;99.90
25622;DHT22;13487;39.360;22.962;2023-02-13T15:40:37;9.30;99.90
25622;DHT22;13487;39.360;22.962;2023-02-13T15:43:23;9.30;1.00
25622;DHT22;13487;39.360;22.962;2023-02-13T15:45:50;9.30;99.90
25622;DHT22;13487;39.360;22.962;2023-02-13T15:48:16;9.30;1.00
25622;DHT22;13487;39.360;22.962;2023-02-13T15:50:42;9.30;1.00
25622;DHT22;13487;39.360;22.962;2023-02-13T15:53:15;9.20;1.00
25622;DHT22;13487;39.360;22.962;2023-02-13T15:56:02;9.20;1.00
25622;DHT22;13487;39.360;22.962;2023-02-13T15:58:30;9.00;99.90
25622;DHT22;13487;39.360;22.962;2023-02-13T16:01:04;9.00;1.00
25622;DHT22;13487;39.360;22.962;2023-02-13T16:03:32;8.90;99.90
25622;DHT22;13487;39.360;22.962;2023-02-13T16:05:59;8.80;1.00
25622;DHT22;13487;39.360;22.962;2023-02-13T16:08:36;8.80;1.00
25622;DHT22;13487;39.360;22.962;2023-02-13T16:14:21;8.70;1.00
25622;DHT22;13487;39.360;22.962;2023-02-13T16:16:50;8.70;1.00
25622;DHT22;13487;39.360;22.962;2023-02-13T16:19:27;8.60;99.90
25622;DHT22;13487;39.360;22.962;2023-02-13T16:21:55;8.50;1.00
25622;DHT22;13487;39.360;22.962;2023-02-13T16:24:23;8.40;99.90
25622;DHT22;13487;39.360;22.962;2023-02-13T16:26:50;8.40;21.40
25622;DHT22;13487;39.360;22.962;2023-02-13T16:29:25;8.30;99.90
25622;DHT22;13487;39.360;22.962;2023-02-13T16:31:53;8.20;99.90
25622;DHT22;13487;39.360;22.962;2023-02-13T16:34:28;8.30;1.00
25622;DHT22;13487;39.360;22.962;2023-02-13T16:36:55;8.20;1.00
25622;DHT22;13487;39.360;22.962;2023-02-13T16:39:31;8.10;1.00
25622;DHT22;13487;39.360;22.962;2023-02-13T16:41:59;8.20;1.00
25622;DHT22;13487;39.360;22.962;2023-02-13T16:44:27;8.20;1.00
25622;DHT22;13487;39.360;22.962;2023-02-13T16:47:01;8.20;99.90
25622;DHT22;13487;39.360;22.962;2023-02-13T16:49:33;8.10;1.00
25622;DHT22;13487;39.360;22.962;2023-02-13T16:52:17;8.20;1.00
25622;DHT22;13487;39.360;22.962;2023-02-13T17:02:15;8.20;99.90
25622;DHT22;13487;39.360;22.962;2023-02-13T17:04:45;8.20;99.90
25622;DHT22;13487;39.360;22.962;2023-02-13T17:07:26;8.20;99.90
25622;DHT22;13487;39.360;22.962;2023-02-13T17:09:57;8.20;99.90
25622;DHT22;13487;39.360;22.962;2023-02-13T17:12:24;8.20;99.90
25622;DHT22;13487;39.360;22.962;2023-02-13T17:14:50;8.20;1.00
25622;DHT22;13487;39.360;22.962;2023-02-13T17:17:19;8.30;27.40
25622;DHT22;13487;39.360;22.962;2023-02-13T17:19:46;8.30;99.90
25622;DHT22;13487;39.360;22.962;2023-02-13T17:22:36;8.10;99.90
25622;DHT22;13487;39.360;22.962;2023-02-13T17:25:06;8.00;99.90
25622;DHT22;13487;39.360;22.962;2023-02-13T17:27:32;8.00;99.90
25622;DHT22;13487;39.360;22.962;2023-02-13T17:29:57;7.70;1.00
25622;DHT22;13487;39.360;22.962;2023-02-13T17:32:25;7.30;1.00
25622;DHT22;13487;39.360;22.962;2023-02-13T17:34:51;7.00;99.90
25622;DHT22;13487;39.360;22.962;2023-02-13T17:37:40;7.40;1.00
25622;DHT22;13487;39.360;22.962;2023-02-13T17:40:07;7.60;1.00
25622;DHT22;13487;39.360;22.962;2023-02-13T17:42:35;7.60;1.00
25622;DHT22;13487;39.360;22.962;2023-02-13T17:45:00;7.60;1.00
25622;DHT22;13487;39.360;22.962;2023-02-13T17:47:26;7.40;99.90
25622;DHT22;13487;39.360;22.962;2023-02-13T17:49:54;7.40;1.00
25622;DHT22;13487;39.360;22.962;2023-02-13T17:52:24;7.30;1.00
25622;DHT22;13487;39.360;22.962;2023-02-13T17:54:51;7.30;1.00
25622;DHT22;13487;39.360;22.962;2023-02-13T17:57:17;7.30;1.00
25622;DHT22;13487;39.360;22.962;2023-02-13T17:59:44;7.40;1.00
25622;DHT22;13487;39.360;22.962;2023-02-13T18:02:21;7.40;1.00
25622;DHT22;13487;39.360;22.962;2023-02-13T18:04:48;7.30;1.00
25622;DHT22;13487;39.360;22.962;2023-02-13T18:07:16;7.30;26.50
25622;DHT22;13487;39.360;22.962;2023-02-13T18:09:43;7.20;1.00
25622;DHT22;13487;39.360;22.962;2023-02-13T18:12:22;7.20;53.60
25622;DHT22;13487;39.360;22.962;2023-02-13T18:14:49;7.20;22.90
25622;DHT22;13487;39.360;22.962;2023-02-13T18:17:16;7.20;99.90
25622;DHT22;13487;39.360;22.962;2023-02-13T18:19:43;7.20;99.90
25622;DHT22;13487;39.360;22.962;2023-02-13T18:22:10;7.10;99.90
25622;DHT22;13487;39.360;22.962;2023-02-13T18:24:38;7.10;99.90
25622;DHT22;13487;39.360;22.962;2023-02-13T18:27:05;7.10;99.90
25622;DHT22;13487;39.360;22.962;2023-02-13T18:29:32;7.10;99.90
25622;DHT22;13487;39.360;22.962;2023-02-13T18:32:01;7.00;99.90